sensor_id;sensor_type;location;lat;lon;timestamp;temperature;humidity
14737;DHT22;7459;53.590;10.062;2022-11-13T00:01:21;8.10;99.90
14737;DHT22;7459;53.590;10.062;2022-11-13T00:03:48;8.10;99.90
14737;DHT22;7459;53.590;10.062;2022-11-13T00:06:15;8.10;99.90
14737;DHT22;7459;53.590;10.062;2022-11-13T00:08:41;8.10;99.90
14737;DHT22;7459;53.590;10.062;2022-11-13T00:11:10;8.00;99.90
14737;DHT22;7459;53.590;10.062;2022-11-13T00:13:37;8.00;99.90
14737;DHT22;7459;53.590;10.062;2022-11-13T00:16:05;8.00;99.90
14737;DHT22;7459;53.590;10.062;2022-11-13T00:18:34;8.00;99.90
14737;DHT22;7459;53.590;10.062;2022-11-13T00:21:08;8.00;99.90
14737;DHT22;7459;53.590;10.062;2022-11-13T00:23:36;8.00;99.90
14737;DHT22;7459;53.590;10.062;2022-11-13T00:26:14;8.00;99.90
14737;DHT22;7459;53.590;10.062;2022-11-13T00:28:42;8.00;99.90
14737;DHT22;7459;53.590;10.062;2022-11-13T00:31:09;8.00;99.90
14737;DHT22;7459;53.590;10.062;2022-11-13T00:33:36;8.00;99.90
14737;DHT22;7459;53.590;10.062;2022-11-13T00:36:07;8.00;99.90
14737;DHT22;7459;53.590;10.062;2022-11-13T00:38:35;8.00;99.90
14737;DHT22;7459;53.590;10.062;2022-11-13T00:41:01;7.90;99.90
14737;DHT22;7459;53.590;10.062;2022-11-13T00:43:27;7.90;99.90
14737;DHT22;7459;53.590;10.062;2022-11-13T00:45:54;7.90;99.90
14737;DHT22;7459;53.590;10.062;2022-11-13T00:48:19;7.90;99.90
14737;DHT22;7459;53.590;10.062;2022-11-13T00:50:46;7.90;99.90
14737;DHT22;7459;53.590;10.062;2022-11-13T00:53:12;7.90;99.90
14737;DHT22;7459;53.590;10.062;2022-11-13T00:55:37;7.90;99.90
14737;DHT22;7459;53.590;10.062;2022-11-13T00:58:03;7.80;99.90
14737;DHT22;7459;53.590;10.062;2022-11-13T01:00:30;7.80;99.90
14737;DHT22;7459;53.590;10.062;2022-11-13T01:02:59;7.90;99.90
14737;DHT22;7459;53.590;10.062;2022-11-13T01:05:25;7.80;99.90
14737;DHT22;7459;53.590;10.062;2022-11-13T01:07:52;7.80;99.90
14737;DHT22;7459;53.590;10.062;2022-11-13T01:10:17;7.80;99.90
14737;DHT22;7459;53.590;10.062;2022-11-13T01:12:43;7.80;99.90
14737;DHT22;7459;53.590;10.062;2022-11-13T01:15:09;7.80;99.90
14737;DHT22;7459;53.590;10.062;2022-11-13T01:17:35;7.70;99.90
14737;DHT22;7459;53.590;10.062;2022-11-13T01:20:01;7.70;99.90
14737;DHT22;7459;53.590;10.062;2022-11-13T01:22:27;7.70;99.90
14737;DHT22;7459;53.590;10.062;2022-11-13T01:24:53;7.70;99.90
14737;DHT22;7459;53.590;10.062;2022-11-13T01:27:18;7.70;99.90
14737;DHT22;7459;53.590;10.062;2022-11-13T01:29:44;7.70;99.90
14737;DHT22;7459;53.590;10.062;2022-11-13T01:32:10;7.70;99.90
14737;DHT22;7459;53.590;10.062;2022-11-13T01:34:35;7.60;99.90
14737;DHT22;7459;53.590;10.062;2022-11-13T01:37:01;7.70;99.90
14737;DHT22;7459;53.590;10.062;2022-11-13T01:39:27;7.70;99.90
14737;DHT22;7459;53.590;10.062;2022-11-13T01:41:53;7.60;99.90
14737;DHT22;7459;53.590;10.062;2022-11-13T01:44:19;7.60;99.90
14737;DHT22;7459;53.590;10.062;2022-11-13T01:46:51;7.60;99.90
14737;DHT22;7459;53.590;10.062;2022-11-13T01:49:37;7.50;99.90
14737;DHT22;7459;53.590;10.062;2022-11-13T01:52:08;7.60;99.90
14737;DHT22;7459;53.590;10.062;2022-11-13T01:54:41;7.60;99.90
14737;DHT22;7459;53.590;10.062;2022-11-13T01:57:09;7.60;99.90
14737;DHT22;7459;53.590;10.062;2022-11-13T01:59:40;7.60;99.90
14737;DHT22;7459;53.590;10.062;2022-11-13T02:02:09;7.50;99.90
14737;DHT22;7459;53.590;10.062;2022-11-13T02:04:35;7.50;99.90
14737;DHT22;7459;53.590;10.062;2022-11-13T02:07:04;7.60;99.90
14737;DHT22;7459;53.590;10.062;2022-11-13T02:09:40;7.60;99.90
14737;DHT22;7459;53.590;10.062;2022-11-13T02:12:10;7.60;99.90
14737;DHT22;7459;53.590;10.062;2022-11-13T02:14:46;7.60;99.90
14737;DHT22;7459;53.590;10.062;2022-11-13T02:17:19;7.60;99.90
14737;DHT22;7459;53.590;10.062;2022-11-13T02:19:51;7.60;99.90
14737;DHT22;7459;53.590;10.062;2022-11-13T02:22:30;7.60;99.90
14737;DHT22;7459;53.590;10.062;2022-11-13T02:25:02;7.60;99.90
14737;DHT22;7459;53.590;10.062;2022-11-13T02:32:47;7.60;99.90
14737;DHT22;7459;53.590;10.062;2022-11-13T02:37:54;7.60;99.90
14737;DHT22;7459;53.590;10.062;2022-11-13T02:40:22;7.60;99.90
14737;DHT22;7459;53.590;10.062;2022-11-13T02:42:48;7.70;99.90
14737;DHT22;7459;53.590;10.062;2022-11-13T02:45:14;7.60;99.90
14737;DHT22;7459;53.590;10.062;2022-11-13T02:47:40;7.60;99.90
14737;DHT22;7459;53.590;10.062;2022-11-13T02:50:06;7.60;99.90
14737;DHT22;7459;53.590;10.062;2022-11-13T02:52:32;7.60;99.90
14737;DHT22;7459;53.590;10.062;2022-11-13T02:54:58;7.60;99.90
14737;DHT22;7459;53.590;10.062;2022-11-13T02:57:24;7.60;99.90
14737;DHT22;7459;53.590;10.062;2022-11-13T02:59:50;7.60;99.90
14737;DHT22;7459;53.590;10.062;2022-11-13T03:04:49;7.60;99.90
14737;DHT22;7459;53.590;10.062;2022-11-13T03:07:15;7.60;99.90
14737;DHT22;7459;53.590;10.062;2022-11-13T03:09:41;7.60;99.90
14737;DHT22;7459;53.590;10.062;2022-11-13T03:12:08;7.60;99.90
14737;DHT22;7459;53.590;10.062;2022-11-13T03:14:34;7.60;99.90
14737;DHT22;7459;53.590;10.062;2022-11-13T03:17:01;7.60;99.90
14737;DHT22;7459;53.590;10.062;2022-11-13T03:19:27;7.60;99.90
14737;DHT22;7459;53.590;10.062;2022-11-13T03:21:53;7.60;99.90
14737;DHT22;7459;53.590;10.062;2022-11-13T03:24:19;7.60;99.90
14737;DHT22;7459;53.590;10.062;2022-11-13T03:26:45;7.60;99.90
14737;DHT22;7459;53.590;10.062;2022-11-13T03:29:10;7.60;99.90
14737;DHT22;7459;53.590;10.062;2022-11-13T03:31:36;7.60;99.90
14737;DHT22;7459;53.590;10.062;2022-11-13T03:34:02;7.60;99.90
14737;DHT22;7459;53.590;10.062;2022-11-13T03:36:28;7.60;99.90
14737;DHT22;7459;53.590;10.062;2022-11-13T03:38:53;7.70;99.90
14737;DHT22;7459;53.590;10.062;2022-11-13T03:41:20;7.60;99.90
14737;DHT22;7459;53.590;10.062;2022-11-13T03:43:47;7.60;99.90
14737;DHT22;7459;53.590;10.062;2022-11-13T03:46:12;7.60;99.90
14737;DHT22;7459;53.590;10.062;2022-11-13T03:48:38;7.60;99.90
14737;DHT22;7459;53.590;10.062;2022-11-13T03:51:04;7.50;99.90
14737;DHT22;7459;53.590;10.062;2022-11-13T03:53:30;7.60;99.90
14737;DHT22;7459;53.590;10.062;2022-11-13T03:55:56;7.60;99.90
14737;DHT22;7459;53.590;10.062;2022-11-13T03:58:21;7.60;99.90
14737;DHT22;7459;53.590;10.062;2022-11-13T04:00:48;7.60;99.90
14737;DHT22;7459;53.590;10.062;2022-11-13T04:03:14;7.60;99.90
14737;DHT22;7459;53.590;10.062;2022-11-13T04:05:41;7.60;99.90
14737;DHT22;7459;53.590;10.062;2022-11-13T04:08:08;7.60;99.90
14737;DHT22;7459;53.590;10.062;2022-11-13T04:10:34;7.50;99.90
14737;DHT22;7459;53.590;10.062;2022-11-13T04:13:00;7.60;99.90
14737;DHT22;7459;53.590;10.062;2022-11-13T04:15:26;7.60;99.90
14737;DHT22;7459;53.590;10.062;2022-11-13T04:17:51;7.60;99.90
14737;DHT22;7459;53.590;10.062;2022-11-13T04:20:17;7.60;99.90
14737;DHT22;7459;53.590;10.062;2022-11-13T04:22:43;7.60;99.90
14737;DHT22;7459;53.590;10.062;2022-11-13T04:25:08;7.60;99.90
14737;DHT22;7459;53.590;10.062;2022-11-13T04:27:35;7.60;99.90
14737;DHT22;7459;53.590;10.062;2022-11-13T04:30:01;7.60;99.90
14737;DHT22;7459;53.590;10.062;2022-11-13T04:32:27;7.60;99.90
14737;DHT22;7459;53.590;10.062;2022-11-13T04:34:53;7.50;99.90
14737;DHT22;7459;53.590;10.062;2022-11-13T04:37:18;7.50;99.90
14737;DHT22;7459;53.590;10.062;2022-11-13T04:39:44;7.50;99.90
14737;DHT22;7459;53.590;10.062;2022-11-13T04:42:10;7.50;99.90
14737;DHT22;7459;53.590;10.062;2022-11-13T04:44:55;7.50;99.90
14737;DHT22;7459;53.590;10.062;2022-11-13T04:47:20;7.50;99.90
14737;DHT22;7459;53.590;10.062;2022-11-13T04:49:46;7.50;99.90
14737;DHT22;7459;53.590;10.062;2022-11-13T04:52:12;7.50;99.90
14737;DHT22;7459;53.590;10.062;2022-11-13T04:54:38;7.40;99.90
14737;DHT22;7459;53.590;10.062;2022-11-13T04:57:04;7.40;99.90
14737;DHT22;7459;53.590;10.062;2022-11-13T04:59:29;7.40;99.90
14737;DHT22;7459;53.590;10.062;2022-11-13T05:01:55;7.40;99.90
14737;DHT22;7459;53.590;10.062;2022-11-13T05:04:22;7.40;99.90
14737;DHT22;7459;53.590;10.062;2022-11-13T05:06:48;7.40;99.90
14737;DHT22;7459;53.590;10.062;2022-11-13T05:09:14;7.40;99.90
14737;DHT22;7459;53.590;10.062;2022-11-13T05:11:40;7.40;99.90
14737;DHT22;7459;53.590;10.062;2022-11-13T05:14:06;7.40;99.90
14737;DHT22;7459;53.590;10.062;2022-11-13T05:16:34;7.40;99.90
14737;DHT22;7459;53.590;10.062;2022-11-13T05:19:01;7.40;99.90
14737;DHT22;7459;53.590;10.062;2022-11-13T05:21:32;7.40;99.90
14737;DHT22;7459;53.590;10.062;2022-11-13T05:24:00;7.40;99.90
14737;DHT22;7459;53.590;10.062;2022-11-13T05:26:26;7.40;99.90
14737;DHT22;7459;53.590;10.062;2022-11-13T05:28:52;7.40;99.90
14737;DHT22;7459;53.590;10.062;2022-11-13T05:31:21;7.40;99.90
14737;DHT22;7459;53.590;10.062;2022-11-13T05:33:46;7.40;99.90
14737;DHT22;7459;53.590;10.062;2022-11-13T05:36:15;7.40;99.90
14737;DHT22;7459;53.590;10.062;2022-11-13T05:38:42;7.30;99.90
14737;DHT22;7459;53.590;10.062;2022-11-13T05:41:10;7.40;99.90
14737;DHT22;7459;53.590;10.062;2022-11-13T05:43:37;7.30;99.90
14737;DHT22;7459;53.590;10.062;2022-11-13T05:46:16;7.40;99.90
14737;DHT22;7459;53.590;10.062;2022-11-13T05:48:46;7.30;99.90
14737;DHT22;7459;53.590;10.062;2022-11-13T05:51:18;7.30;99.90
14737;DHT22;7459;53.590;10.062;2022-11-13T05:53:45;7.30;99.90
14737;DHT22;7459;53.590;10.062;2022-11-13T05:56:16;7.20;99.90
14737;DHT22;7459;53.590;10.062;2022-11-13T05:58:44;7.20;99.90
14737;DHT22;7459;53.590;10.062;2022-11-13T06:01:16;7.20;99.90
14737;DHT22;7459;53.590;10.062;2022-11-13T06:03:45;7.20;99.90
14737;DHT22;7459;53.590;10.062;2022-11-13T06:06:13;7.20;99.90
14737;DHT22;7459;53.590;10.062;2022-11-13T06:08:41;7.20;99.90
14737;DHT22;7459;53.590;10.062;2022-11-13T06:11:09;7.20;99.90
14737;DHT22;7459;53.590;10.062;2022-11-13T06:13:37;7.10;99.90
14737;DHT22;7459;53.590;10.062;2022-11-13T06:16:12;7.20;99.90
14737;DHT22;7459;53.590;10.062;2022-11-13T06:18:41;7.20;99.90
14737;DHT22;7459;53.590;10.062;2022-11-13T06:21:14;7.10;99.90
14737;DHT22;7459;53.590;10.062;2022-11-13T06:23:41;7.10;99.90
14737;DHT22;7459;53.590;10.062;2022-11-13T06:26:11;7.10;99.90
14737;DHT22;7459;53.590;10.062;2022-11-13T06:28:44;7.10;99.90
14737;DHT22;7459;53.590;10.062;2022-11-13T06:31:13;7.00;99.90
14737;DHT22;7459;53.590;10.062;2022-11-13T06:33:49;7.00;99.90
14737;DHT22;7459;53.590;10.062;2022-11-13T06:36:18;7.00;99.90
14737;DHT22;7459;53.590;10.062;2022-11-13T06:38:45;6.90;99.90
14737;DHT22;7459;53.590;10.062;2022-11-13T06:41:14;6.90;99.90
14737;DHT22;7459;53.590;10.062;2022-11-13T06:43:41;6.90;99.90
14737;DHT22;7459;53.590;10.062;2022-11-13T06:46:13;6.80;99.90
14737;DHT22;7459;53.590;10.062;2022-11-13T06:48:41;6.80;99.90
14737;DHT22;7459;53.590;10.062;2022-11-13T06:51:11;6.80;99.90
14737;DHT22;7459;53.590;10.062;2022-11-13T06:53:39;6.80;99.90
14737;DHT22;7459;53.590;10.062;2022-11-13T06:56:05;6.70;99.90
14737;DHT22;7459;53.590;10.062;2022-11-13T06:58:32;6.80;99.90
14737;DHT22;7459;53.590;10.062;2022-11-13T07:01:04;6.80;99.90
14737;DHT22;7459;53.590;10.062;2022-11-13T07:03:34;6.90;99.90
14737;DHT22;7459;53.590;10.062;2022-11-13T07:06:07;6.90;99.90
14737;DHT22;7459;53.590;10.062;2022-11-13T07:08:39;6.90;99.90
14737;DHT22;7459;53.590;10.062;2022-11-13T07:11:06;6.80;99.90
14737;DHT22;7459;53.590;10.062;2022-11-13T07:13:32;6.80;99.90
14737;DHT22;7459;53.590;10.062;2022-11-13T07:16:02;6.70;99.90
14737;DHT22;7459;53.590;10.062;2022-11-13T07:18:29;6.80;99.90
14737;DHT22;7459;53.590;10.062;2022-11-13T07:20:56;6.90;99.90
14737;DHT22;7459;53.590;10.062;2022-11-13T07:23:22;6.90;99.90
14737;DHT22;7459;53.590;10.062;2022-11-13T07:25:48;6.90;99.90
14737;DHT22;7459;53.590;10.062;2022-11-13T07:28:14;7.00;99.90
14737;DHT22;7459;53.590;10.062;2022-11-13T07:30:39;7.00;99.90
14737;DHT22;7459;53.590;10.062;2022-11-13T07:33:05;7.00;99.90
14737;DHT22;7459;53.590;10.062;2022-11-13T07:35:31;7.00;99.90
14737;DHT22;7459;53.590;10.062;2022-11-13T07:37:57;7.00;99.90
14737;DHT22;7459;53.590;10.062;2022-11-13T07:40:23;7.00;99.90
14737;DHT22;7459;53.590;10.062;2022-11-13T07:42:56;6.90;99.90
14737;DHT22;7459;53.590;10.062;2022-11-13T07:45:26;6.90;99.90
14737;DHT22;7459;53.590;10.062;2022-11-13T07:47:57;7.00;99.90
14737;DHT22;7459;53.590;10.062;2022-11-13T07:50:23;7.10;99.90
14737;DHT22;7459;53.590;10.062;2022-11-13T07:52:55;7.10;99.90
14737;DHT22;7459;53.590;10.062;2022-11-13T07:55:21;7.10;99.90
14737;DHT22;7459;53.590;10.062;2022-11-13T07:57:47;7.10;99.90
14737;DHT22;7459;53.590;10.062;2022-11-13T08:00:13;7.10;99.90
14737;DHT22;7459;53.590;10.062;2022-11-13T08:02:39;7.20;99.90
14737;DHT22;7459;53.590;10.062;2022-11-13T08:05:05;7.20;99.90
14737;DHT22;7459;53.590;10.062;2022-11-13T08:07:30;7.20;99.90
14737;DHT22;7459;53.590;10.062;2022-11-13T08:09:56;7.20;99.90
14737;DHT22;7459;53.590;10.062;2022-11-13T08:12:22;7.20;99.90
14737;DHT22;7459;53.590;10.062;2022-11-13T08:14:47;7.20;99.90
14737;DHT22;7459;53.590;10.062;2022-11-13T08:17:13;7.30;99.90
14737;DHT22;7459;53.590;10.062;2022-11-13T08:19:39;7.30;99.90
14737;DHT22;7459;53.590;10.062;2022-11-13T08:22:05;7.30;99.90
14737;DHT22;7459;53.590;10.062;2022-11-13T08:24:30;7.30;99.90
14737;DHT22;7459;53.590;10.062;2022-11-13T08:26:57;7.30;99.90
14737;DHT22;7459;53.590;10.062;2022-11-13T08:29:22;7.30;99.90
14737;DHT22;7459;53.590;10.062;2022-11-13T08:31:48;7.40;99.90
14737;DHT22;7459;53.590;10.062;2022-11-13T08:34:14;7.40;99.90
14737;DHT22;7459;53.590;10.062;2022-11-13T08:36:39;7.40;99.90
14737;DHT22;7459;53.590;10.062;2022-11-13T08:39:05;7.50;99.90
14737;DHT22;7459;53.590;10.062;2022-11-13T08:41:31;7.50;99.90
14737;DHT22;7459;53.590;10.062;2022-11-13T08:43:57;7.60;99.90
14737;DHT22;7459;53.590;10.062;2022-11-13T08:46:22;7.60;99.90
14737;DHT22;7459;53.590;10.062;2022-11-13T08:48:48;7.70;99.90
14737;DHT22;7459;53.590;10.062;2022-11-13T08:51:14;7.70;99.90
14737;DHT22;7459;53.590;10.062;2022-11-13T08:53:39;7.60;99.90
14737;DHT22;7459;53.590;10.062;2022-11-13T08:56:05;7.70;99.90
14737;DHT22;7459;53.590;10.062;2022-11-13T08:58:31;7.70;99.90
14737;DHT22;7459;53.590;10.062;2022-11-13T09:01:01;7.70;99.90
14737;DHT22;7459;53.590;10.062;2022-11-13T09:03:27;7.70;99.90
14737;DHT22;7459;53.590;10.062;2022-11-13T09:05:53;7.80;99.90
14737;DHT22;7459;53.590;10.062;2022-11-13T09:08:19;7.80;99.90
14737;DHT22;7459;53.590;10.062;2022-11-13T09:10:44;7.80;99.90
14737;DHT22;7459;53.590;10.062;2022-11-13T09:13:10;7.80;99.90
14737;DHT22;7459;53.590;10.062;2022-11-13T09:15:37;7.70;99.90
14737;DHT22;7459;53.590;10.062;2022-11-13T09:18:04;7.80;99.90
14737;DHT22;7459;53.590;10.062;2022-11-13T09:20:31;7.80;99.90
14737;DHT22;7459;53.590;10.062;2022-11-13T09:22:59;7.80;99.90
14737;DHT22;7459;53.590;10.062;2022-11-13T09:25:27;7.90;99.90
14737;DHT22;7459;53.590;10.062;2022-11-13T09:27:55;7.90;99.90
14737;DHT22;7459;53.590;10.062;2022-11-13T09:30:23;8.00;99.90
14737;DHT22;7459;53.590;10.062;2022-11-13T09:32:57;8.00;99.90
14737;DHT22;7459;53.590;10.062;2022-11-13T09:35:26;8.00;99.90
14737;DHT22;7459;53.590;10.062;2022-11-13T09:38:12;8.00;99.90
14737;DHT22;7459;53.590;10.062;2022-11-13T09:44:01;8.00;99.90
14737;DHT22;7459;53.590;10.062;2022-11-13T09:46:39;8.10;99.90
14737;DHT22;7459;53.590;10.062;2022-11-13T09:49:25;8.00;99.90
14737;DHT22;7459;53.590;10.062;2022-11-13T09:51:56;7.90;99.90
14737;DHT22;7459;53.590;10.062;2022-11-13T09:54:23;8.00;99.90
14737;DHT22;7459;53.590;10.062;2022-11-13T09:57:04;8.00;99.90
14737;DHT22;7459;53.590;10.062;2022-11-13T10:00:02;8.30;99.90
14737;DHT22;7459;53.590;10.062;2022-11-13T10:02:42;8.30;99.90
14737;DHT22;7459;53.590;10.062;2022-11-13T10:06:03;8.30;99.90
14737;DHT22;7459;53.590;10.062;2022-11-13T10:08:55;8.20;99.90
14737;DHT22;7459;53.590;10.062;2022-11-13T10:11:52;8.20;99.90
14737;DHT22;7459;53.590;10.062;2022-11-13T10:14:28;8.30;99.90
14737;DHT22;7459;53.590;10.062;2022-11-13T10:16:58;8.30;99.90
14737;DHT22;7459;53.590;10.062;2022-11-13T10:19:45;8.20;99.90
14737;DHT22;7459;53.590;10.062;2022-11-13T10:22:36;8.20;99.90
14737;DHT22;7459;53.590;10.062;2022-11-13T10:25:20;8.20;99.90
14737;DHT22;7459;53.590;10.062;2022-11-13T10:28:01;8.20;99.90
14737;DHT22;7459;53.590;10.062;2022-11-13T10:30:30;8.20;99.90
14737;DHT22;7459;53.590;10.062;2022-11-13T10:33:05;8.20;99.90
14737;DHT22;7459;53.590;10.062;2022-11-13T10:41:07;8.20;99.90
14737;DHT22;7459;53.590;10.062;2022-11-13T10:44:01;8.20;99.90
14737;DHT22;7459;53.590;10.062;2022-11-13T10:46:31;8.20;99.90
14737;DHT22;7459;53.590;10.062;2022-11-13T10:49:09;8.30;99.90
14737;DHT22;7459;53.590;10.062;2022-11-13T10:51:42;8.30;99.90
14737;DHT22;7459;53.590;10.062;2022-11-13T10:54:29;8.30;99.90
14737;DHT22;7459;53.590;10.062;2022-11-13T10:57:04;8.30;99.90
14737;DHT22;7459;53.590;10.062;2022-11-13T10:59:42;8.20;99.90
14737;DHT22;7459;53.590;10.062;2022-11-13T11:02:17;8.40;99.90
14737;DHT22;7459;53.590;10.062;2022-11-13T11:04:46;8.30;99.90
14737;DHT22;7459;53.590;10.062;2022-11-13T11:07:19;8.30;99.90
14737;DHT22;7459;53.590;10.062;2022-11-13T11:09:46;8.30;99.90
14737;DHT22;7459;53.590;10.062;2022-11-13T11:12:16;8.30;99.90
14737;DHT22;7459;53.590;10.062;2022-11-13T11:15:08;8.30;99.90
14737;DHT22;7459;53.590;10.062;2022-11-13T11:17:51;8.30;99.90
14737;DHT22;7459;53.590;10.062;2022-11-13T11:26:33;8.40;99.90
14737;DHT22;7459;53.590;10.062;2022-11-13T11:29:07;8.40;99.90
14737;DHT22;7459;53.590;10.062;2022-11-13T11:31:53;8.30;99.90
14737;DHT22;7459;53.590;10.062;2022-11-13T11:34:41;8.30;99.90
14737;DHT22;7459;53.590;10.062;2022-11-13T11:37:18;8.30;99.90
14737;DHT22;7459;53.590;10.062;2022-11-13T11:39:49;8.30;99.90
14737;DHT22;7459;53.590;10.062;2022-11-13T11:45:08;8.30;99.90
14737;DHT22;7459;53.590;10.062;2022-11-13T11:47:38;8.30;99.90
14737;DHT22;7459;53.590;10.062;2022-11-13T11:50:10;8.30;99.90
14737;DHT22;7459;53.590;10.062;2022-11-13T12:01:49;8.50;99.90
14737;DHT22;7459;53.590;10.062;2022-11-13T12:04:27;8.50;99.90
14737;DHT22;7459;53.590;10.062;2022-11-13T12:10:06;8.50;99.90
14737;DHT22;7459;53.590;10.062;2022-11-13T12:13:01;8.50;99.90
14737;DHT22;7459;53.590;10.062;2022-11-13T12:15:36;8.50;99.90
14737;DHT22;7459;53.590;10.062;2022-11-13T12:18:21;8.50;99.90
14737;DHT22;7459;53.590;10.062;2022-11-13T12:32:58;8.70;99.90
14737;DHT22;7459;53.590;10.062;2022-11-13T12:35:28;8.70;99.90
14737;DHT22;7459;53.590;10.062;2022-11-13T12:38:17;8.70;99.90
14737;DHT22;7459;53.590;10.062;2022-11-13T12:43:52;8.70;99.90
14737;DHT22;7459;53.590;10.062;2022-11-13T12:46:37;8.70;99.90
14737;DHT22;7459;53.590;10.062;2022-11-13T12:49:15;8.70;99.90
14737;DHT22;7459;53.590;10.062;2022-11-13T12:54:40;8.70;99.90
14737;DHT22;7459;53.590;10.062;2022-11-13T12:57:16;8.80;99.90
14737;DHT22;7459;53.590;10.062;2022-11-13T13:02:26;8.80;99.90
14737;DHT22;7459;53.590;10.062;2022-11-13T13:08:15;8.90;99.90
14737;DHT22;7459;53.590;10.062;2022-11-13T13:11:10;8.90;99.90
14737;DHT22;7459;53.590;10.062;2022-11-13T13:16:32;8.80;99.90
14737;DHT22;7459;53.590;10.062;2022-11-13T13:19:31;8.80;99.90
14737;DHT22;7459;53.590;10.062;2022-11-13T13:21:57;8.80;99.90
14737;DHT22;7459;53.590;10.062;2022-11-13T13:24:32;8.90;99.90
14737;DHT22;7459;53.590;10.062;2022-11-13T13:26:59;8.90;99.90
14737;DHT22;7459;53.590;10.062;2022-11-13T13:29:27;8.90;99.90
14737;DHT22;7459;53.590;10.062;2022-11-13T13:32:34;8.90;99.90
14737;DHT22;7459;53.590;10.062;2022-11-13T13:35:18;8.90;99.90
14737;DHT22;7459;53.590;10.062;2022-11-13T13:38:02;8.90;99.90
14737;DHT22;7459;53.590;10.062;2022-11-13T13:40:55;8.90;99.90
14737;DHT22;7459;53.590;10.062;2022-11-13T13:43:53;8.90;99.90
14737;DHT22;7459;53.590;10.062;2022-11-13T13:46:29;8.90;99.90
14737;DHT22;7459;53.590;10.062;2022-11-13T13:49:02;8.90;99.90
14737;DHT22;7459;53.590;10.062;2022-11-13T13:51:39;9.00;99.90
14737;DHT22;7459;53.590;10.062;2022-11-13T13:54:09;8.90;99.90
14737;DHT22;7459;53.590;10.062;2022-11-13T13:56:49;9.00;99.90
14737;DHT22;7459;53.590;10.062;2022-11-13T13:59:21;9.00;99.90
14737;DHT22;7459;53.590;10.062;2022-11-13T14:01:53;9.00;99.90
14737;DHT22;7459;53.590;10.062;2022-11-13T14:04:21;9.00;99.90
14737;DHT22;7459;53.590;10.062;2022-11-13T14:06:50;9.00;99.90
14737;DHT22;7459;53.590;10.062;2022-11-13T14:09:19;9.00;99.90
14737;DHT22;7459;53.590;10.062;2022-11-13T14:12:03;9.00;99.90
14737;DHT22;7459;53.590;10.062;2022-11-13T14:14:31;9.10;99.90
14737;DHT22;7459;53.590;10.062;2022-11-13T14:16:58;9.00;99.90
14737;DHT22;7459;53.590;10.062;2022-11-13T14:19:26;9.00;99.90
14737;DHT22;7459;53.590;10.062;2022-11-13T14:21:58;9.00;99.90
14737;DHT22;7459;53.590;10.062;2022-11-13T14:27:14;9.00;99.90
14737;DHT22;7459;53.590;10.062;2022-11-13T14:32:17;9.00;99.90
14737;DHT22;7459;53.590;10.062;2022-11-13T14:34:48;9.00;99.90
14737;DHT22;7459;53.590;10.062;2022-11-13T14:37:22;9.00;99.90
14737;DHT22;7459;53.590;10.062;2022-11-13T14:39:49;9.00;99.90
14737;DHT22;7459;53.590;10.062;2022-11-13T14:42:30;9.00;99.90
14737;DHT22;7459;53.590;10.062;2022-11-13T14:45:22;9.00;99.90
14737;DHT22;7459;53.590;10.062;2022-11-13T14:47:56;9.00;99.90
14737;DHT22;7459;53.590;10.062;2022-11-13T14:51:19;9.00;99.90
14737;DHT22;7459;53.590;10.062;2022-11-13T14:53:58;9.00;99.90
14737;DHT22;7459;53.590;10.062;2022-11-13T14:56:39;9.00;99.90
14737;DHT22;7459;53.590;10.062;2022-11-13T14:59:10;9.00;99.90
14737;DHT22;7459;53.590;10.062;2022-11-13T15:01:38;8.90;99.90
14737;DHT22;7459;53.590;10.062;2022-11-13T15:04:04;8.90;99.90
14737;DHT22;7459;53.590;10.062;2022-11-13T15:06:36;8.90;99.90
14737;DHT22;7459;53.590;10.062;2022-11-13T15:09:05;8.90;99.90
14737;DHT22;7459;53.590;10.062;2022-11-13T15:11:35;8.90;99.90
14737;DHT22;7459;53.590;10.062;2022-11-13T15:14:12;8.90;99.90
14737;DHT22;7459;53.590;10.062;2022-11-13T15:16:39;8.90;99.90
14737;DHT22;7459;53.590;10.062;2022-11-13T15:19:16;8.90;99.90
14737;DHT22;7459;53.590;10.062;2022-11-13T15:21:45;8.90;99.90
14737;DHT22;7459;53.590;10.062;2022-11-13T15:24:12;8.90;99.90
14737;DHT22;7459;53.590;10.062;2022-11-13T15:26:38;8.90;99.90
14737;DHT22;7459;53.590;10.062;2022-11-13T15:29:05;9.00;99.90
14737;DHT22;7459;53.590;10.062;2022-11-13T15:31:34;9.00;99.90
14737;DHT22;7459;53.590;10.062;2022-11-13T15:34:01;9.00;99.90
14737;DHT22;7459;53.590;10.062;2022-11-13T15:36:27;9.00;99.90
14737;DHT22;7459;53.590;10.062;2022-11-13T15:38:53;8.90;99.90
14737;DHT22;7459;53.590;10.062;2022-11-13T15:41:24;8.90;99.90
14737;DHT22;7459;53.590;10.062;2022-11-13T15:43:53;9.00;99.90
14737;DHT22;7459;53.590;10.062;2022-11-13T15:46:21;9.00;99.90
14737;DHT22;7459;53.590;10.062;2022-11-13T15:48:48;9.00;99.90
14737;DHT22;7459;53.590;10.062;2022-11-13T15:51:38;9.00;99.90
14737;DHT22;7459;53.590;10.062;2022-11-13T15:56:41;9.00;99.90
14737;DHT22;7459;53.590;10.062;2022-11-13T15:59:11;9.00;99.90
14737;DHT22;7459;53.590;10.062;2022-11-13T16:01:37;9.10;99.90
14737;DHT22;7459;53.590;10.062;2022-11-13T16:04:03;9.00;99.90
14737;DHT22;7459;53.590;10.062;2022-11-13T16:06:31;9.10;99.90
14737;DHT22;7459;53.590;10.062;2022-11-13T16:09:01;9.10;99.90
14737;DHT22;7459;53.590;10.062;2022-11-13T16:11:32;9.10;99.90
14737;DHT22;7459;53.590;10.062;2022-11-13T16:13:59;9.20;99.90
14737;DHT22;7459;53.590;10.062;2022-11-13T16:16:37;9.10;99.90
14737;DHT22;7459;53.590;10.062;2022-11-13T16:19:20;9.20;99.90
14737;DHT22;7459;53.590;10.062;2022-11-13T16:21:48;9.20;99.90
14737;DHT22;7459;53.590;10.062;2022-11-13T16:24:13;9.20;99.90
14737;DHT22;7459;53.590;10.062;2022-11-13T16:26:48;9.20;99.90
14737;DHT22;7459;53.590;10.062;2022-11-13T16:29:20;9.20;99.90
14737;DHT22;7459;53.590;10.062;2022-11-13T16:31:47;9.20;99.90
14737;DHT22;7459;53.590;10.062;2022-11-13T16:34:13;9.20;99.90
14737;DHT22;7459;53.590;10.062;2022-11-13T16:36:39;9.10;99.90
14737;DHT22;7459;53.590;10.062;2022-11-13T16:39:05;9.20;99.90
14737;DHT22;7459;53.590;10.062;2022-11-13T16:41:35;9.20;99.90
14737;DHT22;7459;53.590;10.062;2022-11-13T16:44:01;9.20;99.90
14737;DHT22;7459;53.590;10.062;2022-11-13T16:46:29;9.20;99.90
14737;DHT22;7459;53.590;10.062;2022-11-13T16:48:59;9.20;99.90
14737;DHT22;7459;53.590;10.062;2022-11-13T16:51:25;9.20;99.90
14737;DHT22;7459;53.590;10.062;2022-11-13T16:53:50;9.30;99.90
14737;DHT22;7459;53.590;10.062;2022-11-13T16:56:20;9.30;99.90
14737;DHT22;7459;53.590;10.062;2022-11-13T16:58:56;9.20;99.90
14737;DHT22;7459;53.590;10.062;2022-11-13T17:01:22;9.30;99.90
14737;DHT22;7459;53.590;10.062;2022-11-13T17:03:49;9.30;99.90
14737;DHT22;7459;53.590;10.062;2022-11-13T17:06:29;9.30;99.90
14737;DHT22;7459;53.590;10.062;2022-11-13T17:08:59;9.30;99.90
14737;DHT22;7459;53.590;10.062;2022-11-13T17:11:28;9.30;99.90
14737;DHT22;7459;53.590;10.062;2022-11-13T17:13:57;9.30;99.90
14737;DHT22;7459;53.590;10.062;2022-11-13T17:16:25;9.30;99.90
14737;DHT22;7459;53.590;10.062;2022-11-13T17:18:52;9.30;99.90
14737;DHT22;7459;53.590;10.062;2022-11-13T17:21:22;9.30;99.90